createdAt,value
2019-01-18T00:00:26.853Z,3.40
2019-01-18T00:02:56.784Z,7.53
2019-01-18T00:05:25.123Z,4.50
2019-01-18T00:07:53.448Z,4.93
2019-01-18T00:10:21.785Z,6.93
2019-01-18T00:12:50.130Z,3.20
2019-01-18T00:15:18.460Z,3.43
2019-01-18T00:17:46.792Z,4.63
2019-01-18T00:20:15.405Z,3.13
2019-01-18T00:22:43.734Z,3.73
2019-01-18T00:25:12.074Z,2.47
2019-01-18T00:27:40.418Z,7.50
2019-01-18T00:30:13.264Z,2.60
2019-01-18T00:32:41.592Z,5.07
2019-01-18T00:35:09.939Z,2.73
2019-01-18T00:37:38.270Z,5.83
2019-01-18T00:40:11.209Z,3.50
2019-01-18T00:42:39.554Z,3.17
2019-01-18T00:45:09.663Z,3.60
2019-01-18T00:47:39.368Z,6.70
2019-01-18T00:50:09.345Z,8.23
2019-01-18T00:52:37.673Z,6.63
2019-01-18T00:55:06.491Z,7.83
2019-01-18T00:57:34.804Z,3.30
2019-01-18T01:00:06.536Z,6.67
2019-01-18T01:02:34.949Z,2.97
2019-01-18T01:05:03.822Z,4.47
2019-01-18T01:07:32.164Z,4.77
2019-01-18T01:10:00.505Z,8.43
2019-01-18T01:12:28.835Z,6.40
2019-01-18T01:14:57.170Z,3.17
2019-01-18T01:17:25.576Z,4.37
2019-01-18T01:19:53.920Z,2.17
2019-01-18T01:22:22.269Z,7.47
2019-01-18T01:24:50.897Z,4.57
2019-01-18T01:27:19.224Z,6.67
2019-01-18T01:29:47.568Z,4.43
2019-01-18T01:32:15.905Z,4.43
2019-01-18T01:34:44.505Z,4.77
2019-01-18T01:37:12.841Z,3.43
2019-01-18T01:39:41.173Z,5.13
2019-01-18T01:42:09.505Z,5.03
2019-01-18T01:44:37.850Z,3.40
2019-01-18T01:47:06.249Z,4.07
2019-01-18T01:49:34.652Z,5.57
2019-01-18T01:52:02.989Z,7.80
2019-01-18T01:54:32.957Z,9.33
2019-01-18T01:57:01.301Z,6.43
2019-01-18T01:59:29.642Z,9.13
2019-01-18T02:01:57.973Z,4.20
2019-01-18T02:04:26.311Z,3.60
2019-01-18T02:06:54.638Z,7.67
2019-01-18T02:09:22.968Z,6.57
2019-01-18T02:11:51.300Z,4.43
2019-01-18T02:14:19.648Z,4.93
2019-01-18T02:16:47.977Z,3.90
2019-01-18T02:19:16.300Z,3.60
2019-01-18T02:21:44.641Z,6.23
2019-01-18T02:24:12.986Z,5.60
2019-01-18T02:26:41.326Z,7.57
2019-01-18T02:29:09.659Z,5.53
2019-01-18T02:31:37.993Z,4.77
2019-01-18T02:34:06.335Z,5.23
2019-01-18T02:36:34.732Z,6.23
2019-01-18T02:39:04.409Z,7.00
2019-01-18T02:41:34.702Z,2.93
2019-01-18T02:44:03.037Z,6.33
2019-01-18T02:46:31.379Z,7.17
2019-01-18T02:48:59.722Z,12.03
2019-01-18T02:51:28.070Z,9.90
2019-01-18T02:53:56.418Z,7.07
2019-01-18T02:56:24.767Z,7.03
2019-01-18T02:58:53.090Z,7.07
2019-01-18T03:01:21.430Z,6.20
2019-01-18T03:03:49.757Z,6.60
2019-01-18T03:06:18.105Z,5.93
2019-01-18T03:08:46.454Z,6.20
2019-01-18T03:11:14.798Z,11.50
2019-01-18T03:13:43.134Z,5.37
2019-01-18T03:16:11.540Z,7.77
2019-01-18T03:18:39.968Z,4.13
2019-01-18T03:21:08.412Z,4.50
2019-01-18T03:23:36.744Z,4.53
2019-01-18T03:26:05.131Z,6.10
2019-01-18T03:28:33.750Z,2.97
2019-01-18T03:31:02.496Z,5.97
2019-01-18T03:33:30.920Z,4.67
2019-01-18T03:35:59.267Z,5.67
2019-01-18T03:38:27.943Z,12.67
2019-01-18T03:40:56.615Z,5.00
2019-01-18T03:43:24.978Z,5.47
2019-01-18T03:45:53.323Z,4.07
2019-01-18T03:48:21.691Z,5.07
2019-01-18T03:50:50.115Z,8.60
2019-01-18T03:53:18.502Z,7.30
2019-01-18T03:55:47.195Z,8.47
2019-01-18T03:58:15.608Z,5.37
2019-01-18T04:00:44.261Z,3.43
2019-01-18T04:03:12.638Z,5.10
2019-01-18T04:05:40.957Z,6.30
2019-01-18T04:08:09.382Z,8.70
2019-01-18T04:10:37.766Z,7.07
2019-01-18T04:13:06.110Z,4.17
2019-01-18T04:15:34.514Z,8.17
2019-01-18T04:18:02.855Z,8.10
2019-01-18T04:20:31.185Z,4.03
2019-01-18T04:22:59.564Z,7.23
2019-01-18T04:25:29.566Z,5.60
2019-01-18T04:27:58.802Z,6.40
2019-01-18T04:30:33.397Z,5.10
2019-01-18T04:32:58.382Z,7.47
2019-01-18T04:35:26.713Z,6.83
2019-01-18T04:37:55.154Z,7.03
2019-01-18T04:40:27.215Z,4.77
2019-01-18T04:42:56.098Z,5.77
2019-01-18T04:45:24.440Z,3.40
2019-01-18T04:47:52.774Z,5.47
2019-01-18T04:50:22.258Z,5.10
2019-01-18T04:52:50.625Z,4.23
2019-01-18T04:55:19.303Z,6.63
2019-01-18T04:57:47.637Z,5.93
2019-01-18T05:00:17.441Z,4.50
2019-01-18T05:02:45.797Z,4.00
2019-01-18T05:05:14.137Z,5.17
2019-01-18T05:07:42.743Z,5.27
2019-01-18T05:10:12.937Z,4.40
2019-01-18T05:12:41.340Z,5.10
2019-01-18T05:15:11.233Z,5.40
2019-01-18T05:17:39.570Z,7.73
2019-01-18T05:20:08.783Z,8.33
2019-01-18T05:22:37.108Z,3.83
2019-01-18T05:25:07.210Z,6.20
2019-01-18T05:27:35.544Z,6.80
2019-01-18T05:30:05.508Z,3.97
2019-01-18T05:32:33.886Z,8.70
2019-01-18T05:35:02.243Z,5.07
2019-01-18T05:37:30.596Z,4.97
2019-01-18T05:39:58.924Z,8.07
2019-01-18T05:42:27.289Z,4.00
2019-01-18T05:44:55.766Z,5.63
2019-01-18T05:47:24.133Z,6.77
2019-01-18T05:49:52.560Z,8.20
2019-01-18T05:52:20.903Z,4.97
2019-01-18T05:54:49.265Z,6.17
2019-01-18T05:57:17.971Z,7.47
2019-01-18T05:59:46.347Z,5.30
2019-01-18T06:02:14.732Z,6.90
2019-01-18T06:04:44.943Z,7.03
2019-01-18T06:07:13.277Z,9.07
2019-01-18T06:09:41.610Z,10.20
2019-01-18T06:12:09.961Z,13.73
2019-01-18T06:14:38.301Z,7.27
2019-01-18T06:17:06.822Z,9.57
2019-01-18T06:19:35.178Z,15.00
2019-01-18T06:22:03.512Z,12.87
2019-01-18T06:24:31.861Z,23.03
2019-01-18T06:27:00.189Z,26.40
2019-01-18T06:29:28.540Z,32.27
2019-01-18T06:31:56.876Z,29.50
2019-01-18T06:34:25.234Z,47.37
2019-01-18T06:36:53.649Z,50.27
2019-01-18T06:39:22.061Z,44.80
2019-01-18T06:41:50.584Z,38.13
2019-01-18T06:44:18.936Z,34.70
2019-01-18T06:46:47.272Z,31.30
2019-01-18T06:49:18.944Z,34.20
2019-01-18T06:51:47.283Z,30.43
2019-01-18T06:54:15.628Z,25.07
2019-01-18T06:56:43.981Z,27.60
2019-01-18T06:59:12.313Z,18.63
2019-01-18T07:01:40.679Z,16.40
2019-01-18T07:04:09.021Z,13.50
2019-01-18T07:06:37.361Z,19.20
2019-01-18T07:09:06.877Z,12.20
2019-01-18T07:11:35.212Z,9.37
2019-01-18T07:14:03.819Z,13.27
2019-01-18T07:16:32.180Z,10.67
2019-01-18T07:19:00.902Z,10.50
2019-01-18T07:21:29.250Z,12.07
2019-01-18T07:23:57.596Z,6.97
2019-01-18T07:26:25.989Z,6.53
2019-01-18T07:28:54.329Z,9.90
2019-01-18T07:31:22.665Z,10.80
2019-01-18T07:33:51.010Z,7.23
2019-01-18T07:36:19.347Z,14.13
2019-01-18T07:38:47.685Z,10.67
2019-01-18T07:41:16.032Z,9.13
2019-01-18T07:43:44.367Z,10.60
2019-01-18T07:46:12.704Z,6.23
2019-01-18T07:48:41.062Z,8.13
2019-01-18T07:51:09.386Z,9.30
2019-01-18T07:53:37.730Z,6.50
2019-01-18T07:56:06.050Z,8.00
2019-01-18T07:58:34.389Z,11.77
2019-01-18T08:01:02.722Z,8.30
2019-01-18T08:03:31.057Z,10.67
2019-01-18T08:05:59.399Z,10.73
2019-01-18T08:08:27.737Z,9.57
2019-01-18T08:10:56.073Z,9.83
2019-01-18T08:13:24.413Z,15.00
2019-01-18T08:15:52.757Z,11.50
2019-01-18T08:18:21.101Z,12.80
2019-01-18T08:20:49.449Z,8.33
2019-01-18T08:23:17.777Z,10.37
2019-01-18T08:25:46.122Z,8.20
2019-01-18T08:28:14.464Z,11.60
2019-01-18T08:30:42.810Z,19.43
2019-01-18T08:33:11.150Z,20.37
2019-01-18T08:35:39.497Z,10.80
2019-01-18T08:38:07.841Z,13.07
2019-01-18T08:40:36.902Z,14.63
2019-01-18T08:43:06.132Z,11.23
2019-01-18T08:45:38.854Z,14.57
2019-01-18T08:48:08.469Z,12.87
2019-01-18T08:50:36.984Z,8.00
2019-01-18T08:53:05.389Z,15.07
2019-01-18T08:55:33.736Z,15.47
2019-01-18T08:58:02.078Z,11.57
2019-01-18T09:00:31.270Z,12.77
2019-01-18T09:02:59.605Z,8.00
2019-01-18T09:05:28.601Z,12.07
2019-01-18T09:07:57.004Z,6.57
2019-01-18T09:10:26.623Z,10.90
2019-01-18T09:12:54.972Z,7.93
2019-01-18T09:15:23.304Z,8.03
2019-01-18T09:17:51.635Z,4.60
2019-01-18T09:20:21.833Z,15.80
2019-01-18T09:22:50.167Z,9.13
2019-01-18T09:25:18.501Z,13.87
2019-01-18T09:27:47.197Z,9.93
2019-01-18T09:30:16.707Z,14.77
2019-01-18T09:32:46.759Z,10.00
2019-01-18T09:35:16.171Z,14.67
2019-01-18T09:37:44.587Z,10.70
2019-01-18T09:40:14.556Z,12.03
2019-01-18T09:42:42.885Z,11.67
2019-01-18T09:45:11.896Z,12.67
2019-01-18T09:47:40.225Z,17.03
2019-01-18T09:50:15.972Z,14.77
2019-01-18T09:52:44.305Z,18.57
2019-01-18T09:55:12.647Z,19.47
2019-01-18T09:57:42.068Z,19.87
2019-01-18T10:00:14.875Z,29.17
2019-01-18T10:02:43.252Z,13.17
2019-01-18T10:05:11.702Z,28.17
2019-01-18T10:07:40.125Z,20.77
2019-01-18T10:10:12.818Z,21.60
2019-01-18T10:12:41.184Z,23.50
2019-01-18T10:15:11.621Z,12.97
2019-01-18T10:17:39.957Z,20.60
2019-01-18T10:20:10.179Z,12.63
2019-01-18T10:22:38.582Z,10.60
2019-01-18T10:25:08.553Z,13.03
2019-01-18T10:27:36.894Z,15.40
2019-01-18T10:30:06.872Z,12.00
2019-01-18T10:32:35.206Z,9.93
2019-01-18T10:35:04.318Z,14.17
2019-01-18T10:37:32.666Z,10.90
2019-01-18T10:40:01.002Z,13.00
2019-01-18T10:42:29.342Z,12.87
2019-01-18T10:44:57.718Z,14.00
2019-01-18T10:47:26.062Z,12.57
2019-01-18T10:49:54.414Z,13.57
2019-01-18T10:52:22.737Z,5.80
2019-01-18T10:54:51.132Z,9.93
2019-01-18T10:57:19.569Z,12.87
2019-01-18T10:59:47.900Z,17.13
2019-01-18T11:02:16.236Z,9.60
2019-01-18T11:04:44.586Z,13.23
2019-01-18T11:07:12.918Z,8.63
2019-01-18T11:09:41.439Z,10.97
2019-01-18T11:12:10.133Z,9.33
2019-01-18T11:14:38.535Z,12.57
2019-01-18T11:17:06.909Z,9.60
2019-01-18T11:19:35.584Z,10.27
2019-01-18T11:22:03.994Z,15.80
2019-01-18T11:24:32.638Z,12.00
2019-01-18T11:27:00.975Z,12.30
2019-01-18T11:29:29.324Z,7.97
2019-01-18T11:31:57.678Z,14.97
2019-01-18T11:34:26.018Z,10.13
2019-01-18T11:36:56.505Z,10.20
2019-01-18T11:39:24.386Z,9.17
2019-01-18T11:41:53.374Z,12.70
2019-01-18T11:44:21.721Z,12.53
2019-01-18T11:46:50.070Z,16.23
2019-01-18T11:49:18.423Z,12.20
2019-01-18T11:51:46.942Z,4.30
2019-01-18T11:54:15.303Z,10.03
2019-01-18T11:56:43.638Z,14.70
2019-01-18T11:59:11.977Z,10.03
2019-01-18T12:01:40.449Z,11.17
2019-01-18T12:04:08.849Z,11.20
2019-01-18T12:06:37.518Z,12.37
2019-01-18T12:09:06.354Z,11.73
2019-01-18T12:11:36.307Z,7.63
2019-01-18T12:14:04.834Z,7.77
2019-01-18T12:16:33.191Z,9.30
2019-01-18T12:19:01.883Z,6.77
2019-01-18T12:21:30.284Z,2.10
2019-01-18T12:23:58.669Z,7.80
2019-01-18T12:26:27.348Z,4.30
2019-01-18T12:28:55.709Z,5.97
2019-01-18T12:31:24.138Z,6.70
2019-01-18T12:33:52.472Z,8.83
2019-01-18T12:36:20.830Z,13.33
2019-01-18T12:38:49.496Z,11.10
2019-01-18T12:41:17.864Z,10.83
2019-01-18T12:43:46.285Z,8.10
2019-01-18T12:46:14.626Z,5.87
2019-01-18T12:48:42.961Z,7.07
2019-01-18T12:51:11.292Z,10.63
2019-01-18T12:53:41.758Z,5.63
2019-01-18T12:56:10.094Z,9.90
2019-01-18T12:58:38.661Z,6.87
2019-01-18T13:01:07.058Z,6.90
2019-01-18T13:03:35.807Z,6.23
2019-01-18T13:06:04.126Z,8.83
2019-01-18T13:08:32.466Z,6.20
2019-01-18T13:11:00.870Z,6.93
2019-01-18T13:13:29.204Z,8.43
2019-01-18T13:16:02.152Z,10.93
2019-01-18T13:18:30.722Z,6.10
2019-01-18T13:20:59.062Z,5.70
2019-01-18T13:23:27.689Z,10.03
2019-01-18T13:25:56.037Z,8.73
2019-01-18T13:28:24.385Z,5.53
2019-01-18T13:30:52.802Z,9.57
2019-01-18T13:33:21.144Z,7.43
2019-01-18T13:35:49.594Z,5.73
2019-01-18T13:38:18.021Z,12.60
2019-01-18T13:40:48.477Z,10.80
2019-01-18T13:43:16.846Z,11.03
2019-01-18T13:45:45.190Z,4.63
2019-01-18T13:48:13.598Z,10.87
2019-01-18T13:50:41.967Z,7.07
2019-01-18T13:53:10.341Z,9.80
2019-01-18T13:55:38.677Z,8.23
2019-01-18T13:58:07.019Z,7.70
2019-01-18T14:00:35.489Z,8.40
2019-01-18T14:03:04.850Z,8.77
2019-01-18T14:05:33.192Z,11.77
2019-01-18T14:08:01.582Z,14.43
2019-01-18T14:10:31.153Z,8.70
2019-01-18T14:12:59.514Z,7.87
2019-01-18T14:15:27.853Z,10.07
2019-01-18T14:17:56.309Z,9.83
2019-01-18T14:20:25.736Z,11.00
2019-01-18T14:22:54.061Z,10.20
2019-01-18T14:25:22.429Z,12.27
2019-01-18T14:27:50.774Z,10.70
2019-01-18T14:30:20.486Z,8.47
2019-01-18T14:32:55.465Z,8.20
2019-01-18T14:35:19.936Z,11.17
2019-01-18T14:37:48.272Z,7.67
2019-01-18T14:40:17.691Z,7.70
2019-01-18T14:42:47.746Z,7.40
2019-01-18T14:45:26.474Z,12.37
2019-01-18T14:47:55.789Z,10.53
2019-01-18T14:50:24.120Z,7.10
2019-01-18T14:52:52.465Z,8.37
2019-01-18T14:55:20.979Z,8.40
2019-01-18T14:57:49.369Z,10.83
2019-01-18T15:00:19.073Z,10.90
2019-01-18T15:02:48.590Z,11.37
2019-01-18T15:05:16.934Z,14.50
2019-01-18T15:07:45.296Z,8.47
2019-01-18T15:10:16.169Z,12.30
2019-01-18T15:12:44.582Z,11.37
2019-01-18T15:15:14.141Z,9.43
2019-01-18T15:17:44.374Z,15.50
2019-01-18T15:20:17.038Z,16.27
2019-01-18T15:22:45.749Z,14.63
2019-01-18T15:25:14.153Z,12.10
2019-01-18T15:27:42.493Z,18.20
2019-01-18T15:30:12.728Z,14.70
2019-01-18T15:32:41.137Z,12.90
2019-01-18T15:35:11.149Z,12.40
2019-01-18T15:37:40.570Z,13.10
2019-01-18T15:40:10.546Z,13.03
2019-01-18T15:42:38.958Z,15.10
2019-01-18T15:45:08.378Z,17.87
2019-01-18T15:47:38.103Z,23.10
2019-01-18T15:50:08.202Z,19.53
2019-01-18T15:52:37.304Z,23.50
2019-01-18T15:55:07.230Z,24.70
2019-01-18T15:57:35.670Z,24.90
2019-01-18T16:00:11.418Z,28.70
2019-01-18T16:02:39.844Z,28.90
2019-01-18T16:05:08.349Z,25.17
2019-01-18T16:07:36.765Z,27.23
2019-01-18T16:10:06.757Z,28.70
2019-01-18T16:12:37.009Z,28.50
2019-01-18T16:15:07.007Z,27.00
2019-01-18T16:17:35.556Z,28.90
2019-01-18T16:20:05.779Z,26.80
2019-01-18T16:22:45.546Z,23.97
2019-01-18T16:25:15.737Z,24.67
2019-01-18T16:27:44.117Z,25.13
2019-01-18T16:30:14.343Z,23.67
2019-01-18T16:32:42.928Z,22.97
2019-01-18T16:35:14.080Z,21.80
2019-01-18T16:37:43.311Z,25.73
2019-01-18T16:40:14.954Z,23.87
2019-01-18T16:42:50.777Z,23.43
2019-01-18T16:45:20.269Z,22.87
2019-01-18T16:47:48.619Z,20.43
2019-01-18T16:50:16.973Z,21.57
2019-01-18T16:52:45.314Z,21.63
2019-01-18T16:55:15.455Z,18.03
2019-01-18T16:57:45.541Z,19.87
2019-01-18T17:00:15.522Z,18.53
2019-01-18T17:02:44.125Z,21.80
2019-01-18T17:05:12.477Z,20.97
2019-01-18T17:07:40.829Z,19.63
2019-01-18T17:10:13.740Z,17.17
2019-01-18T17:12:42.094Z,20.83
2019-01-18T17:15:12.016Z,18.07
2019-01-18T17:17:40.362Z,19.77
2019-01-18T17:20:16.330Z,16.43
2019-01-18T17:22:44.682Z,18.97
2019-01-18T17:25:13.035Z,19.93
2019-01-18T17:27:41.382Z,16.70
2019-01-18T17:30:11.494Z,16.43
2019-01-18T17:32:39.857Z,22.70
2019-01-18T17:35:12.655Z,24.10
2019-01-18T17:37:41.776Z,16.93
2019-01-18T17:40:11.995Z,20.90
2019-01-18T17:42:42.046Z,21.00
2019-01-18T17:45:12.048Z,23.23
2019-01-18T17:47:44.771Z,20.97
2019-01-18T17:50:31.417Z,22.93
2019-01-18T17:53:13.405Z,19.60
2019-01-18T17:55:55.322Z,21.63
2019-01-18T17:58:40.289Z,19.20
2019-01-18T18:01:13.186Z,15.43
2019-01-18T18:03:43.665Z,20.70
2019-01-18T18:06:16.889Z,21.77
2019-01-18T18:09:01.928Z,20.03
2019-01-18T18:11:33.828Z,20.20
2019-01-18T18:14:05.814Z,17.73
2019-01-18T18:16:44.962Z,21.57
2019-01-18T18:19:14.958Z,18.10
2019-01-18T18:22:01.313Z,18.53
2019-01-18T18:24:31.292Z,19.67
2019-01-18T18:27:07.253Z,19.70
2019-01-18T18:29:53.208Z,22.07
2019-01-18T18:32:25.964Z,18.33
2019-01-18T18:34:57.421Z,24.53
2019-01-18T18:37:27.477Z,18.77
2019-01-18T18:40:00.221Z,25.63
2019-01-18T18:42:32.878Z,28.13
2019-01-18T18:45:02.858Z,25.13
2019-01-18T18:47:38.856Z,24.40
2019-01-18T18:50:20.738Z,25.33
2019-01-18T18:52:57.693Z,30.37
2019-01-18T18:55:30.686Z,25.80
2019-01-18T18:58:06.873Z,24.13
2019-01-18T19:00:42.945Z,23.70
2019-01-18T19:03:28.034Z,22.33
2019-01-18T19:06:00.753Z,23.23
2019-01-18T19:08:45.709Z,22.87
2019-01-18T19:11:27.610Z,23.00
2019-01-18T19:14:06.538Z,25.93
2019-01-18T19:16:42.305Z,16.13
2019-01-18T19:19:12.330Z,21.60
2019-01-18T19:21:51.737Z,24.20
2019-01-18T19:24:38.466Z,24.00
2019-01-18T19:27:08.456Z,24.77
2019-01-18T19:29:44.478Z,25.90
2019-01-18T19:32:14.469Z,25.27
2019-01-18T19:34:47.302Z,24.63
2019-01-18T19:37:17.394Z,23.07
2019-01-18T19:39:47.357Z,24.97
2019-01-18T19:42:26.290Z,24.33
2019-01-18T19:44:56.256Z,23.60
2019-01-18T19:47:35.381Z,31.57
2019-01-18T19:50:05.354Z,25.03
2019-01-18T19:52:37.998Z,27.10
2019-01-18T19:55:07.974Z,29.53
2019-01-18T19:57:38.425Z,25.90
2019-01-18T20:00:23.341Z,21.50
2019-01-18T20:02:56.192Z,32.10
2019-01-18T20:05:32.330Z,33.17
2019-01-18T20:08:11.211Z,33.97
2019-01-18T20:10:44.058Z,32.10
2019-01-18T20:13:30.705Z,30.97
2019-01-18T20:16:00.709Z,36.60
2019-01-18T20:18:42.629Z,30.20
2019-01-18T20:21:15.683Z,31.80
2019-01-18T20:23:45.901Z,34.60
2019-01-18T20:26:18.842Z,31.07
2019-01-18T20:29:04.281Z,34.50
2019-01-18T20:31:34.522Z,31.50
2019-01-18T20:34:19.470Z,34.97
2019-01-18T20:36:58.441Z,38.33
2019-01-18T20:39:37.444Z,74.53
2019-01-18T20:42:07.649Z,35.47
2019-01-18T20:44:37.646Z,36.30
2019-01-18T20:47:10.664Z,33.67
2019-01-18T20:49:40.864Z,33.07
2019-01-18T20:52:10.841Z,33.70
2019-01-18T20:54:52.977Z,33.00
2019-01-18T20:57:23.240Z,34.00
2019-01-18T20:59:56.083Z,37.33
2019-01-18T21:02:26.067Z,34.40
2019-01-18T21:05:02.072Z,34.97
2019-01-18T21:07:32.142Z,34.97
2019-01-18T21:10:02.148Z,31.90
2019-01-18T21:12:47.494Z,32.63
2019-01-18T21:15:34.874Z,35.53
2019-01-18T21:18:11.089Z,33.87
2019-01-18T21:20:43.735Z,36.90
2019-01-18T21:23:22.770Z,36.03
2019-01-18T21:25:52.744Z,34.97
2019-01-18T21:28:37.962Z,34.90
2019-01-18T21:31:13.934Z,35.63
2019-01-18T21:34:00.333Z,35.37
2019-01-18T21:36:30.426Z,34.43
2019-01-18T21:39:00.641Z,34.53
2019-01-18T21:41:32.406Z,34.77
2019-01-18T21:44:18.821Z,31.67
2019-01-18T21:46:51.597Z,31.03
2019-01-18T21:49:24.288Z,47.13
2019-01-18T21:51:54.277Z,35.17
2019-01-18T21:54:26.900Z,46.27
2019-01-18T21:57:08.810Z,44.47
2019-01-18T21:59:44.792Z,40.37
2019-01-18T22:02:14.780Z,33.77
2019-01-18T22:04:44.930Z,35.93
2019-01-18T22:07:20.663Z,34.40
2019-01-18T22:09:53.327Z,31.53
2019-01-18T22:12:39.730Z,36.73
2019-01-18T22:15:19.910Z,33.33
2019-01-18T22:18:02.128Z,36.93
2019-01-18T22:20:44.205Z,36.30
2019-01-18T22:23:14.544Z,35.10
2019-01-18T22:25:50.614Z,31.60
2019-01-18T22:28:32.527Z,36.83
2019-01-18T22:31:05.465Z,36.90
2019-01-18T22:33:38.384Z,33.23
2019-01-18T22:36:20.658Z,31.47
2019-01-18T22:38:50.727Z,48.07
2019-01-18T22:41:20.699Z,42.53
2019-01-18T22:44:07.349Z,37.33
2019-01-18T22:46:37.549Z,30.97
2019-01-18T22:49:10.194Z,37.37
2019-01-18T22:51:40.430Z,32.87
2019-01-18T22:54:25.649Z,33.77
2019-01-18T22:56:58.688Z,36.67
2019-01-18T22:59:45.174Z,34.37
2019-01-18T23:02:24.386Z,34.90
2019-01-18T23:04:55.668Z,38.03
2019-01-18T23:07:28.913Z,31.40
2019-01-18T23:10:01.606Z,34.17
2019-01-18T23:12:46.748Z,36.00
2019-01-18T23:15:29.160Z,34.83
2019-01-18T23:18:14.588Z,34.47
2019-01-18T23:20:47.696Z,34.87
2019-01-18T23:23:26.843Z,36.20
2019-01-18T23:25:59.526Z,37.10
2019-01-18T23:28:46.408Z,37.77
2019-01-18T23:31:19.365Z,34.07
2019-01-18T23:33:49.356Z,36.83
2019-01-18T23:36:34.366Z,32.57
2019-01-18T23:39:22.618Z,38.30
2019-01-18T23:41:58.660Z,33.27
2019-01-18T23:44:31.503Z,33.63
2019-01-18T23:47:18.159Z,39.53
2019-01-18T23:49:48.371Z,34.63
2019-01-18T23:52:18.443Z,37.27
2019-01-18T23:54:51.313Z,35.37
2019-01-18T23:57:21.290Z,37.90
2019-01-18T23:59:51.412Z,40.13
